sensor_id;sensor_type;location;lat;lon;timestamp;P1;durP1;ratioP1;P2;durP2;ratioP2
46781;SDS011;32541;46.298;11.506;2024-01-16T00:00:39;2.93;;;0.90;;
46781;SDS011;32541;46.298;11.506;2024-01-16T00:03:05;1.60;;;0.60;;
46781;SDS011;32541;46.298;11.506;2024-01-16T00:05:31;1.90;;;0.50;;
46781;SDS011;32541;46.298;11.506;2024-01-16T00:07:56;2.70;;;0.70;;
46781;SDS011;32541;46.298;11.506;2024-01-16T00:10:24;3.83;;;1.10;;
46781;SDS011;32541;46.298;11.506;2024-01-16T00:12:50;1.13;;;0.70;;
46781;SDS011;32541;46.298;11.506;2024-01-16T00:15:15;1.17;;;0.53;;
46781;SDS011;32541;46.298;11.506;2024-01-16T00:17:40;3.63;;;0.50;;
46781;SDS011;32541;46.298;11.506;2024-01-16T00:20:06;3.17;;;0.40;;
46781;SDS011;32541;46.298;11.506;2024-01-16T00:22:32;1.60;;;0.60;;
46781;SDS011;32541;46.298;11.506;2024-01-16T00:24:57;0.63;;;0.30;;
46781;SDS011;32541;46.298;11.506;2024-01-16T00:27:22;1.37;;;0.60;;
46781;SDS011;32541;46.298;11.506;2024-01-16T00:29:48;3.83;;;1.40;;
46781;SDS011;32541;46.298;11.506;2024-01-16T00:32:13;1.87;;;0.83;;
46781;SDS011;32541;46.298;11.506;2024-01-16T00:34:41;3.23;;;0.70;;
46781;SDS011;32541;46.298;11.506;2024-01-16T00:37:07;2.50;;;0.63;;
46781;SDS011;32541;46.298;11.506;2024-01-16T00:39:33;1.40;;;0.50;;
46781;SDS011;32541;46.298;11.506;2024-01-16T00:41:58;1.67;;;0.50;;
46781;SDS011;32541;46.298;11.506;2024-01-16T00:44:24;1.10;;;0.30;;
46781;SDS011;32541;46.298;11.506;2024-01-16T00:46:49;1.80;;;0.50;;
46781;SDS011;32541;46.298;11.506;2024-01-16T00:49:14;2.93;;;0.60;;
46781;SDS011;32541;46.298;11.506;2024-01-16T00:51:40;6.03;;;0.47;;
46781;SDS011;32541;46.298;11.506;2024-01-16T00:54:05;0.63;;;0.30;;
46781;SDS011;32541;46.298;11.506;2024-01-16T00:56:33;2.43;;;0.77;;
46781;SDS011;32541;46.298;11.506;2024-01-16T00:58:59;2.67;;;0.57;;
46781;SDS011;32541;46.298;11.506;2024-01-16T01:01:24;2.13;;;1.33;;
46781;SDS011;32541;46.298;11.506;2024-01-16T01:03:50;0.53;;;0.33;;
46781;SDS011;32541;46.298;11.506;2024-01-16T01:06:16;1.40;;;0.60;;
46781;SDS011;32541;46.298;11.506;2024-01-16T01:08:41;1.93;;;0.57;;
46781;SDS011;32541;46.298;11.506;2024-01-16T01:11:07;1.60;;;0.63;;
46781;SDS011;32541;46.298;11.506;2024-01-16T01:13:32;2.17;;;0.70;;
46781;SDS011;32541;46.298;11.506;2024-01-16T01:15:57;0.90;;;0.40;;
46781;SDS011;32541;46.298;11.506;2024-01-16T01:18:23;5.43;;;1.90;;
46781;SDS011;32541;46.298;11.506;2024-01-16T01:20:49;2.83;;;1.27;;
46781;SDS011;32541;46.298;11.506;2024-01-16T01:23:14;1.07;;;0.40;;
46781;SDS011;32541;46.298;11.506;2024-01-16T01:25:39;0.77;;;0.40;;
46781;SDS011;32541;46.298;11.506;2024-01-16T01:28:05;3.33;;;0.90;;
46781;SDS011;32541;46.298;11.506;2024-01-16T01:30:31;3.80;;;1.83;;
46781;SDS011;32541;46.298;11.506;2024-01-16T01:32:57;5.07;;;2.70;;
46781;SDS011;32541;46.298;11.506;2024-01-16T01:35:22;4.90;;;1.57;;
46781;SDS011;32541;46.298;11.506;2024-01-16T01:37:47;5.93;;;1.57;;
46781;SDS011;32541;46.298;11.506;2024-01-16T01:40:13;2.40;;;0.80;;
46781;SDS011;32541;46.298;11.506;2024-01-16T01:42:40;2.67;;;0.93;;
46781;SDS011;32541;46.298;11.506;2024-01-16T01:45:07;1.80;;;0.50;;
46781;SDS011;32541;46.298;11.506;2024-01-16T01:47:36;1.90;;;0.80;;
46781;SDS011;32541;46.298;11.506;2024-01-16T01:50:02;0.87;;;0.50;;
46781;SDS011;32541;46.298;11.506;2024-01-16T01:52:30;0.73;;;0.23;;
46781;SDS011;32541;46.298;11.506;2024-01-16T01:54:56;1.87;;;0.70;;
46781;SDS011;32541;46.298;11.506;2024-01-16T01:57:22;1.17;;;0.40;;
46781;SDS011;32541;46.298;11.506;2024-01-16T01:59:48;3.50;;;1.07;;
46781;SDS011;32541;46.298;11.506;2024-01-16T02:02:14;2.43;;;0.70;;
46781;SDS011;32541;46.298;11.506;2024-01-16T02:04:39;2.17;;;0.80;;
46781;SDS011;32541;46.298;11.506;2024-01-16T02:07:06;4.13;;;0.97;;
46781;SDS011;32541;46.298;11.506;2024-01-16T02:09:32;1.27;;;0.57;;
46781;SDS011;32541;46.298;11.506;2024-01-16T02:11:58;1.10;;;0.57;;
46781;SDS011;32541;46.298;11.506;2024-01-16T02:14:23;1.50;;;0.70;;
46781;SDS011;32541;46.298;11.506;2024-01-16T02:16:48;0.90;;;0.40;;
46781;SDS011;32541;46.298;11.506;2024-01-16T02:19:15;0.77;;;0.40;;
46781;SDS011;32541;46.298;11.506;2024-01-16T02:21:44;1.17;;;0.57;;
46781;SDS011;32541;46.298;11.506;2024-01-16T02:24:15;4.23;;;0.60;;
46781;SDS011;32541;46.298;11.506;2024-01-16T02:26:42;0.60;;;0.30;;
46781;SDS011;32541;46.298;11.506;2024-01-16T02:29:08;0.60;;;0.20;;
46781;SDS011;32541;46.298;11.506;2024-01-16T02:31:34;0.67;;;0.30;;
46781;SDS011;32541;46.298;11.506;2024-01-16T02:34:00;1.47;;;0.70;;
46781;SDS011;32541;46.298;11.506;2024-01-16T02:36:25;0.80;;;0.30;;
46781;SDS011;32541;46.298;11.506;2024-01-16T02:38:51;3.93;;;0.70;;
46781;SDS011;32541;46.298;11.506;2024-01-16T02:41:17;2.47;;;0.70;;
46781;SDS011;32541;46.298;11.506;2024-01-16T02:43:43;2.20;;;0.47;;
46781;SDS011;32541;46.298;11.506;2024-01-16T02:46:09;1.77;;;0.43;;
46781;SDS011;32541;46.298;11.506;2024-01-16T02:48:35;0.60;;;0.40;;
46781;SDS011;32541;46.298;11.506;2024-01-16T02:51:03;0.70;;;0.40;;
46781;SDS011;32541;46.298;11.506;2024-01-16T02:53:29;0.97;;;0.40;;
46781;SDS011;32541;46.298;11.506;2024-01-16T02:55:55;0.67;;;0.30;;
46781;SDS011;32541;46.298;11.506;2024-01-16T02:58:23;1.13;;;0.30;;
46781;SDS011;32541;46.298;11.506;2024-01-16T03:00:49;0.93;;;0.20;;
46781;SDS011;32541;46.298;11.506;2024-01-16T03:03:14;0.60;;;0.33;;
46781;SDS011;32541;46.298;11.506;2024-01-16T03:05:40;0.80;;;0.30;;
46781;SDS011;32541;46.298;11.506;2024-01-16T03:08:06;2.20;;;0.70;;
46781;SDS011;32541;46.298;11.506;2024-01-16T03:10:32;0.60;;;0.20;;
46781;SDS011;32541;46.298;11.506;2024-01-16T03:12:57;0.30;;;0.17;;
46781;SDS011;32541;46.298;11.506;2024-01-16T03:15:23;0.50;;;0.20;;
46781;SDS011;32541;46.298;11.506;2024-01-16T03:17:48;0.23;;;0.23;;
46781;SDS011;32541;46.298;11.506;2024-01-16T03:20:14;0.50;;;0.33;;
46781;SDS011;32541;46.298;11.506;2024-01-16T03:22:40;0.43;;;0.30;;
46781;SDS011;32541;46.298;11.506;2024-01-16T03:25:07;0.40;;;0.20;;
46781;SDS011;32541;46.298;11.506;2024-01-16T03:27:33;0.47;;;0.23;;
46781;SDS011;32541;46.298;11.506;2024-01-16T03:29:58;0.73;;;0.20;;
46781;SDS011;32541;46.298;11.506;2024-01-16T03:32:24;1.43;;;0.47;;
46781;SDS011;32541;46.298;11.506;2024-01-16T03:34:50;0.47;;;0.23;;
46781;SDS011;32541;46.298;11.506;2024-01-16T03:37:15;1.50;;;0.40;;
46781;SDS011;32541;46.298;11.506;2024-01-16T03:39:41;1.03;;;0.20;;
46781;SDS011;32541;46.298;11.506;2024-01-16T03:42:06;1.00;;;0.30;;
46781;SDS011;32541;46.298;11.506;2024-01-16T03:44:32;0.40;;;0.17;;
46781;SDS011;32541;46.298;11.506;2024-01-16T03:46:57;0.37;;;0.30;;
46781;SDS011;32541;46.298;11.506;2024-01-16T03:49:22;0.93;;;0.23;;
46781;SDS011;32541;46.298;11.506;2024-01-16T03:51:48;0.93;;;0.40;;
46781;SDS011;32541;46.298;11.506;2024-01-16T03:54:17;0.63;;;0.40;;
46781;SDS011;32541;46.298;11.506;2024-01-16T03:56:42;0.40;;;0.27;;
46781;SDS011;32541;46.298;11.506;2024-01-16T03:59:07;2.20;;;0.33;;
46781;SDS011;32541;46.298;11.506;2024-01-16T04:01:33;0.40;;;0.17;;
46781;SDS011;32541;46.298;11.506;2024-01-16T04:04:01;0.20;;;0.20;;
46781;SDS011;32541;46.298;11.506;2024-01-16T04:06:27;0.60;;;0.27;;
46781;SDS011;32541;46.298;11.506;2024-01-16T04:08:54;0.73;;;0.23;;
46781;SDS011;32541;46.298;11.506;2024-01-16T04:11:19;0.43;;;0.20;;
46781;SDS011;32541;46.298;11.506;2024-01-16T04:13:45;0.10;;;0.10;;
46781;SDS011;32541;46.298;11.506;2024-01-16T04:16:11;0.53;;;0.40;;
46781;SDS011;32541;46.298;11.506;2024-01-16T04:18:38;2.37;;;0.30;;
46781;SDS011;32541;46.298;11.506;2024-01-16T04:21:05;0.70;;;0.30;;
46781;SDS011;32541;46.298;11.506;2024-01-16T04:23:31;0.33;;;0.20;;
46781;SDS011;32541;46.298;11.506;2024-01-16T04:25:57;0.20;;;0.20;;
46781;SDS011;32541;46.298;11.506;2024-01-16T04:28:22;0.20;;;0.20;;
46781;SDS011;32541;46.298;11.506;2024-01-16T04:30:48;0.10;;;0.10;;
46781;SDS011;32541;46.298;11.506;2024-01-16T04:33:14;0.77;;;0.40;;
46781;SDS011;32541;46.298;11.506;2024-01-16T04:35:39;0.67;;;0.40;;
46781;SDS011;32541;46.298;11.506;2024-01-16T04:38:04;0.43;;;0.20;;
46781;SDS011;32541;46.298;11.506;2024-01-16T04:40:30;1.03;;;0.30;;
46781;SDS011;32541;46.298;11.506;2024-01-16T04:42:55;2.40;;;0.27;;
46781;SDS011;32541;46.298;11.506;2024-01-16T04:45:20;1.43;;;0.20;;
46781;SDS011;32541;46.298;11.506;2024-01-16T04:47:46;0.37;;;0.20;;
46781;SDS011;32541;46.298;11.506;2024-01-16T04:50:11;2.73;;;1.40;;
46781;SDS011;32541;46.298;11.506;2024-01-16T04:52:36;0.77;;;0.50;;
46781;SDS011;32541;46.298;11.506;2024-01-16T04:55:02;0.23;;;0.20;;
46781;SDS011;32541;46.298;11.506;2024-01-16T04:57:27;1.00;;;0.40;;
46781;SDS011;32541;46.298;11.506;2024-01-16T04:59:53;3.87;;;0.40;;
46781;SDS011;32541;46.298;11.506;2024-01-16T05:02:18;2.63;;;0.60;;
46781;SDS011;32541;46.298;11.506;2024-01-16T05:04:43;2.23;;;0.50;;
46781;SDS011;32541;46.298;11.506;2024-01-16T05:07:09;3.87;;;1.20;;
46781;SDS011;32541;46.298;11.506;2024-01-16T05:09:34;2.07;;;1.30;;
46781;SDS011;32541;46.298;11.506;2024-01-16T05:12:00;11.53;;;1.37;;
46781;SDS011;32541;46.298;11.506;2024-01-16T05:14:26;2.03;;;0.60;;
46781;SDS011;32541;46.298;11.506;2024-01-16T05:16:51;1.50;;;0.90;;
46781;SDS011;32541;46.298;11.506;2024-01-16T05:19:17;3.70;;;1.63;;
46781;SDS011;32541;46.298;11.506;2024-01-16T05:21:43;3.73;;;2.03;;
46781;SDS011;32541;46.298;11.506;2024-01-16T05:24:08;4.97;;;2.53;;
46781;SDS011;32541;46.298;11.506;2024-01-16T05:26:34;3.50;;;1.37;;
46781;SDS011;32541;46.298;11.506;2024-01-16T05:28:59;1.80;;;1.20;;
46781;SDS011;32541;46.298;11.506;2024-01-16T05:31:24;2.73;;;1.17;;
46781;SDS011;32541;46.298;11.506;2024-01-16T05:33:50;13.07;;;2.23;;
46781;SDS011;32541;46.298;11.506;2024-01-16T05:36:15;12.77;;;3.90;;
46781;SDS011;32541;46.298;11.506;2024-01-16T05:38:41;7.73;;;3.40;;
46781;SDS011;32541;46.298;11.506;2024-01-16T05:41:06;4.57;;;1.97;;
46781;SDS011;32541;46.298;11.506;2024-01-16T05:43:31;4.30;;;2.83;;
46781;SDS011;32541;46.298;11.506;2024-01-16T05:45:57;2.23;;;1.00;;
46781;SDS011;32541;46.298;11.506;2024-01-16T05:48:22;4.27;;;1.10;;
46781;SDS011;32541;46.298;11.506;2024-01-16T05:50:48;7.97;;;2.93;;
46781;SDS011;32541;46.298;11.506;2024-01-16T05:53:13;8.03;;;3.77;;
46781;SDS011;32541;46.298;11.506;2024-01-16T05:55:38;4.03;;;2.20;;
46781;SDS011;32541;46.298;11.506;2024-01-16T05:58:04;5.27;;;1.60;;
46781;SDS011;32541;46.298;11.506;2024-01-16T06:00:29;8.57;;;5.00;;
46781;SDS011;32541;46.298;11.506;2024-01-16T06:02:55;7.63;;;3.90;;
46781;SDS011;32541;46.298;11.506;2024-01-16T06:05:20;13.00;;;5.53;;
46781;SDS011;32541;46.298;11.506;2024-01-16T06:07:45;8.23;;;4.37;;
46781;SDS011;32541;46.298;11.506;2024-01-16T06:10:14;8.90;;;4.17;;
46781;SDS011;32541;46.298;11.506;2024-01-16T06:12:39;14.13;;;5.47;;
46781;SDS011;32541;46.298;11.506;2024-01-16T06:15:05;5.37;;;3.17;;
46781;SDS011;32541;46.298;11.506;2024-01-16T06:17:31;10.77;;;4.27;;
46781;SDS011;32541;46.298;11.506;2024-01-16T06:19:57;9.40;;;4.30;;
46781;SDS011;32541;46.298;11.506;2024-01-16T06:22:22;10.70;;;3.83;;
46781;SDS011;32541;46.298;11.506;2024-01-16T06:24:47;6.63;;;2.30;;
46781;SDS011;32541;46.298;11.506;2024-01-16T06:27:13;23.63;;;3.87;;
46781;SDS011;32541;46.298;11.506;2024-01-16T06:29:44;13.87;;;4.70;;
46781;SDS011;32541;46.298;11.506;2024-01-16T06:32:12;9.30;;;2.83;;
46781;SDS011;32541;46.298;11.506;2024-01-16T06:34:38;4.10;;;2.83;;
46781;SDS011;32541;46.298;11.506;2024-01-16T06:37:03;17.83;;;8.03;;
46781;SDS011;32541;46.298;11.506;2024-01-16T06:39:29;13.87;;;6.37;;
46781;SDS011;32541;46.298;11.506;2024-01-16T06:41:54;8.97;;;3.73;;
46781;SDS011;32541;46.298;11.506;2024-01-16T06:44:20;7.13;;;3.07;;
46781;SDS011;32541;46.298;11.506;2024-01-16T06:46:45;10.83;;;3.40;;
46781;SDS011;32541;46.298;11.506;2024-01-16T06:49:11;16.47;;;3.67;;
46781;SDS011;32541;46.298;11.506;2024-01-16T06:51:36;25.17;;;4.57;;
46781;SDS011;32541;46.298;11.506;2024-01-16T06:54:01;20.37;;;6.23;;
46781;SDS011;32541;46.298;11.506;2024-01-16T06:56:28;13.70;;;7.30;;
46781;SDS011;32541;46.298;11.506;2024-01-16T06:58:54;14.10;;;5.20;;
46781;SDS011;32541;46.298;11.506;2024-01-16T07:01:19;16.17;;;4.33;;
46781;SDS011;32541;46.298;11.506;2024-01-16T07:03:45;28.37;;;8.17;;
46781;SDS011;32541;46.298;11.506;2024-01-16T07:06:10;14.27;;;6.87;;
46781;SDS011;32541;46.298;11.506;2024-01-16T07:08:35;8.17;;;3.87;;
46781;SDS011;32541;46.298;11.506;2024-01-16T07:11:01;11.60;;;4.73;;
46781;SDS011;32541;46.298;11.506;2024-01-16T07:13:26;14.17;;;9.20;;
46781;SDS011;32541;46.298;11.506;2024-01-16T07:15:52;30.23;;;11.23;;
46781;SDS011;32541;46.298;11.506;2024-01-16T07:18:17;71.27;;;35.10;;
46781;SDS011;32541;46.298;11.506;2024-01-16T07:20:43;41.23;;;21.50;;
46781;SDS011;32541;46.298;11.506;2024-01-16T07:23:10;33.50;;;15.57;;
46781;SDS011;32541;46.298;11.506;2024-01-16T07:25:36;29.43;;;12.80;;
46781;SDS011;32541;46.298;11.506;2024-01-16T07:28:01;21.80;;;9.63;;
46781;SDS011;32541;46.298;11.506;2024-01-16T07:30:27;27.63;;;11.90;;
46781;SDS011;32541;46.298;11.506;2024-01-16T07:32:52;42.63;;;19.60;;
46781;SDS011;32541;46.298;11.506;2024-01-16T07:35:18;41.53;;;14.40;;
46781;SDS011;32541;46.298;11.506;2024-01-16T07:37:44;23.03;;;10.60;;
46781;SDS011;32541;46.298;11.506;2024-01-16T07:40:09;21.60;;;11.07;;
46781;SDS011;32541;46.298;11.506;2024-01-16T07:42:37;17.20;;;7.90;;
46781;SDS011;32541;46.298;11.506;2024-01-16T07:45:03;17.47;;;8.20;;
46781;SDS011;32541;46.298;11.506;2024-01-16T07:47:30;14.50;;;6.67;;
46781;SDS011;32541;46.298;11.506;2024-01-16T07:49:56;27.77;;;9.03;;
46781;SDS011;32541;46.298;11.506;2024-01-16T07:52:22;27.27;;;13.43;;
46781;SDS011;32541;46.298;11.506;2024-01-16T07:54:47;18.23;;;8.63;;
46781;SDS011;32541;46.298;11.506;2024-01-16T07:57:13;17.73;;;6.77;;
46781;SDS011;32541;46.298;11.506;2024-01-16T07:59:38;25.03;;;7.23;;
46781;SDS011;32541;46.298;11.506;2024-01-16T08:02:05;15.80;;;9.17;;
46781;SDS011;32541;46.298;11.506;2024-01-16T08:04:31;15.77;;;5.37;;
46781;SDS011;32541;46.298;11.506;2024-01-16T08:06:57;25.17;;;5.47;;
46781;SDS011;32541;46.298;11.506;2024-01-16T08:09:22;22.23;;;5.33;;
46781;SDS011;32541;46.298;11.506;2024-01-16T08:11:47;12.80;;;4.55;;
46781;SDS011;32541;46.298;11.506;2024-01-16T08:14:13;14.93;;;8.18;;
46781;SDS011;32541;46.298;11.506;2024-01-16T08:16:38;12.35;;;7.88;;
46781;SDS011;32541;46.298;11.506;2024-01-16T08:19:04;5.38;;;3.90;;
46781;SDS011;32541;46.298;11.506;2024-01-16T08:21:29;9.73;;;3.17;;
46781;SDS011;32541;46.298;11.506;2024-01-16T08:23:55;6.60;;;3.17;;
46781;SDS011;32541;46.298;11.506;2024-01-16T08:26:20;15.73;;;4.97;;
46781;SDS011;32541;46.298;11.506;2024-01-16T08:28:45;13.18;;;7.38;;
46781;SDS011;32541;46.298;11.506;2024-01-16T08:31:11;12.10;;;5.88;;
46781;SDS011;32541;46.298;11.506;2024-01-16T08:33:36;18.58;;;10.38;;
46781;SDS011;32541;46.298;11.506;2024-01-16T08:36:02;24.83;;;10.00;;
46781;SDS011;32541;46.298;11.506;2024-01-16T08:38:29;14.18;;;6.97;;
46781;SDS011;32541;46.298;11.506;2024-01-16T08:40:54;14.45;;;4.10;;
46781;SDS011;32541;46.298;11.506;2024-01-16T08:43:20;23.77;;;10.10;;
46781;SDS011;32541;46.298;11.506;2024-01-16T08:45:45;7.60;;;3.00;;
46781;SDS011;32541;46.298;11.506;2024-01-16T08:48:12;6.93;;;2.90;;
46781;SDS011;32541;46.298;11.506;2024-01-16T08:50:40;8.55;;;4.97;;
46781;SDS011;32541;46.298;11.506;2024-01-16T08:53:05;21.50;;;9.10;;
46781;SDS011;32541;46.298;11.506;2024-01-16T08:55:31;23.30;;;11.70;;
46781;SDS011;32541;46.298;11.506;2024-01-16T08:57:57;18.63;;;10.00;;
46781;SDS011;32541;46.298;11.506;2024-01-16T09:00:22;14.90;;;7.43;;
46781;SDS011;32541;46.298;11.506;2024-01-16T09:02:48;13.63;;;8.52;;
46781;SDS011;32541;46.298;11.506;2024-01-16T09:05:13;15.05;;;8.60;;
46781;SDS011;32541;46.298;11.506;2024-01-16T09:07:39;16.05;;;9.15;;
46781;SDS011;32541;46.298;11.506;2024-01-16T09:10:06;19.13;;;9.73;;
46781;SDS011;32541;46.298;11.506;2024-01-16T09:12:32;25.95;;;12.20;;
46781;SDS011;32541;46.298;11.506;2024-01-16T09:14:58;11.63;;;6.78;;
46781;SDS011;32541;46.298;11.506;2024-01-16T09:17:23;11.18;;;6.07;;
46781;SDS011;32541;46.298;11.506;2024-01-16T09:19:50;13.38;;;7.47;;
46781;SDS011;32541;46.298;11.506;2024-01-16T09:22:16;12.32;;;5.63;;
46781;SDS011;32541;46.298;11.506;2024-01-16T09:24:41;10.52;;;6.30;;
46781;SDS011;32541;46.298;11.506;2024-01-16T09:27:07;14.63;;;7.53;;
46781;SDS011;32541;46.298;11.506;2024-01-16T09:29:35;21.43;;;7.97;;
46781;SDS011;32541;46.298;11.506;2024-01-16T09:32:00;14.23;;;7.60;;
46781;SDS011;32541;46.298;11.506;2024-01-16T09:34:26;10.53;;;6.23;;
46781;SDS011;32541;46.298;11.506;2024-01-16T09:36:51;10.93;;;5.87;;
46781;SDS011;32541;46.298;11.506;2024-01-16T09:39:16;9.90;;;5.70;;
46781;SDS011;32541;46.298;11.506;2024-01-16T09:41:42;10.43;;;4.80;;
46781;SDS011;32541;46.298;11.506;2024-01-16T09:44:09;10.73;;;4.83;;
46781;SDS011;32541;46.298;11.506;2024-01-16T09:46:34;9.27;;;4.43;;
46781;SDS011;32541;46.298;11.506;2024-01-16T09:49:03;5.97;;;3.90;;
46781;SDS011;32541;46.298;11.506;2024-01-16T09:51:29;12.50;;;5.13;;
46781;SDS011;32541;46.298;11.506;2024-01-16T09:53:55;15.33;;;4.70;;
46781;SDS011;32541;46.298;11.506;2024-01-16T09:56:21;13.10;;;5.50;;
46781;SDS011;32541;46.298;11.506;2024-01-16T09:58:49;13.63;;;5.37;;
46781;SDS011;32541;46.298;11.506;2024-01-16T10:01:19;11.93;;;4.60;;
46781;SDS011;32541;46.298;11.506;2024-01-16T10:03:46;10.07;;;5.00;;
46781;SDS011;32541;46.298;11.506;2024-01-16T10:06:12;9.97;;;4.43;;
46781;SDS011;32541;46.298;11.506;2024-01-16T10:08:40;14.37;;;5.37;;
46781;SDS011;32541;46.298;11.506;2024-01-16T10:11:06;14.63;;;5.10;;
46781;SDS011;32541;46.298;11.506;2024-01-16T10:13:32;11.63;;;5.33;;
46781;SDS011;32541;46.298;11.506;2024-01-16T10:15:58;11.98;;;5.30;;
46781;SDS011;32541;46.298;11.506;2024-01-16T10:18:28;10.80;;;5.15;;
46781;SDS011;32541;46.298;11.506;2024-01-16T10:20:57;13.32;;;4.90;;
46781;SDS011;32541;46.298;11.506;2024-01-16T10:23:26;9.30;;;4.05;;
46781;SDS011;32541;46.298;11.506;2024-01-16T10:26:09;12.30;;;6.05;;
46781;SDS011;32541;46.298;11.506;2024-01-16T10:28:38;14.55;;;4.88;;
46781;SDS011;32541;46.298;11.506;2024-01-16T10:31:05;18.27;;;5.30;;
46781;SDS011;32541;46.298;11.506;2024-01-16T10:33:34;12.37;;;4.77;;
46781;SDS011;32541;46.298;11.506;2024-01-16T10:36:15;8.90;;;5.23;;
46781;SDS011;32541;46.298;11.506;2024-01-16T10:38:42;8.37;;;5.67;;
46781;SDS011;32541;46.298;11.506;2024-01-16T10:41:12;9.23;;;4.27;;
46781;SDS011;32541;46.298;11.506;2024-01-16T10:43:39;9.10;;;4.17;;
46781;SDS011;32541;46.298;11.506;2024-01-16T10:48:43;8.50;;;3.90;;
46781;SDS011;32541;46.298;11.506;2024-01-16T10:51:12;10.40;;;4.63;;
46781;SDS011;32541;46.298;11.506;2024-01-16T10:53:41;9.67;;;5.17;;
46781;SDS011;32541;46.298;11.506;2024-01-16T10:56:11;7.57;;;4.13;;
46781;SDS011;32541;46.298;11.506;2024-01-16T10:58:41;11.13;;;4.10;;
46781;SDS011;32541;46.298;11.506;2024-01-16T11:01:11;6.38;;;4.00;;
46781;SDS011;32541;46.298;11.506;2024-01-16T11:03:49;11.73;;;4.13;;
46781;SDS011;32541;46.298;11.506;2024-01-16T11:06:16;20.98;;;7.32;;
46781;SDS011;32541;46.298;11.506;2024-01-16T11:08:45;44.50;;;20.95;;
46781;SDS011;32541;46.298;11.506;2024-01-16T11:11:11;19.00;;;6.23;;
46781;SDS011;32541;46.298;11.506;2024-01-16T11:13:38;9.40;;;4.20;;
46781;SDS011;32541;46.298;11.506;2024-01-16T11:16:05;6.13;;;3.27;;
46781;SDS011;32541;46.298;11.506;2024-01-16T11:18:32;9.07;;;4.80;;
46781;SDS011;32541;46.298;11.506;2024-01-16T11:20:59;16.03;;;6.30;;
46781;SDS011;32541;46.298;11.506;2024-01-16T11:23:26;12.50;;;5.60;;
46781;SDS011;32541;46.298;11.506;2024-01-16T11:25:52;10.30;;;3.57;;
46781;SDS011;32541;46.298;11.506;2024-01-16T11:28:17;9.57;;;4.03;;
46781;SDS011;32541;46.298;11.506;2024-01-16T11:30:44;6.00;;;3.30;;
46781;SDS011;32541;46.298;11.506;2024-01-16T11:33:41;6.97;;;3.40;;
46781;SDS011;32541;46.298;11.506;2024-01-16T11:36:01;9.13;;;3.73;;
46781;SDS011;32541;46.298;11.506;2024-01-16T11:38:27;5.23;;;3.17;;
46781;SDS011;32541;46.298;11.506;2024-01-16T11:40:55;10.67;;;3.33;;
46781;SDS011;32541;46.298;11.506;2024-01-16T11:45:59;5.03;;;2.47;;
46781;SDS011;32541;46.298;11.506;2024-01-16T11:48:25;4.07;;;2.30;;
46781;SDS011;32541;46.298;11.506;2024-01-16T11:50:51;7.83;;;2.87;;
46781;SDS011;32541;46.298;11.506;2024-01-16T11:56:06;12.37;;;5.20;;
46781;SDS011;32541;46.298;11.506;2024-01-16T12:01:44;9.53;;;2.50;;
46781;SDS011;32541;46.298;11.506;2024-01-16T12:04:10;5.03;;;1.60;;
46781;SDS011;32541;46.298;11.506;2024-01-16T12:06:36;9.40;;;3.93;;
46781;SDS011;32541;46.298;11.506;2024-01-16T12:09:15;12.57;;;3.40;;
46781;SDS011;32541;46.298;11.506;2024-01-16T12:11:42;6.33;;;2.13;;
46781;SDS011;32541;46.298;11.506;2024-01-16T12:14:10;5.77;;;3.13;;
46781;SDS011;32541;46.298;11.506;2024-01-16T12:16:38;3.90;;;1.90;;
46781;SDS011;32541;46.298;11.506;2024-01-16T12:19:06;8.13;;;1.50;;
46781;SDS011;32541;46.298;11.506;2024-01-16T12:21:39;4.57;;;1.17;;
46781;SDS011;32541;46.298;11.506;2024-01-16T12:24:06;1.57;;;0.83;;
46781;SDS011;32541;46.298;11.506;2024-01-16T12:26:32;2.70;;;0.90;;
46781;SDS011;32541;46.298;11.506;2024-01-16T12:28:58;1.97;;;1.10;;
46781;SDS011;32541;46.298;11.506;2024-01-16T12:31:24;2.07;;;0.93;;
46781;SDS011;32541;46.298;11.506;2024-01-16T12:33:51;2.73;;;0.87;;
46781;SDS011;32541;46.298;11.506;2024-01-16T12:36:17;54.77;;;24.03;;
46781;SDS011;32541;46.298;11.506;2024-01-16T12:38:42;0.90;;;0.70;;
46781;SDS011;32541;46.298;11.506;2024-01-16T12:41:08;0.80;;;0.60;;
46781;SDS011;32541;46.298;11.506;2024-01-16T12:43:35;3.63;;;0.90;;
46781;SDS011;32541;46.298;11.506;2024-01-16T12:46:02;2.50;;;0.80;;
46781;SDS011;32541;46.298;11.506;2024-01-16T12:48:28;4.17;;;1.37;;
46781;SDS011;32541;46.298;11.506;2024-01-16T12:51:00;3.70;;;1.70;;
46781;SDS011;32541;46.298;11.506;2024-01-16T12:53:29;1.80;;;1.00;;
46781;SDS011;32541;46.298;11.506;2024-01-16T12:56:01;2.50;;;1.20;;
46781;SDS011;32541;46.298;11.506;2024-01-16T12:58:33;8.03;;;1.63;;
46781;SDS011;32541;46.298;11.506;2024-01-16T13:01:20;4.00;;;1.20;;
46781;SDS011;32541;46.298;11.506;2024-01-16T13:03:53;2.28;;;1.30;;
46781;SDS011;32541;46.298;11.506;2024-01-16T13:06:19;2.70;;;1.10;;
46781;SDS011;32541;46.298;11.506;2024-01-16T13:09:03;3.13;;;1.60;;
46781;SDS011;32541;46.298;11.506;2024-01-16T13:11:44;4.33;;;1.53;;
46781;SDS011;32541;46.298;11.506;2024-01-16T13:14:10;2.97;;;1.70;;
46781;SDS011;32541;46.298;11.506;2024-01-16T13:16:35;3.03;;;1.20;;
46781;SDS011;32541;46.298;11.506;2024-01-16T13:19:01;7.13;;;1.50;;
46781;SDS011;32541;46.298;11.506;2024-01-16T13:21:27;2.20;;;1.27;;
46781;SDS011;32541;46.298;11.506;2024-01-16T13:27:14;3.27;;;0.90;;
46781;SDS011;32541;46.298;11.506;2024-01-16T13:29:39;2.53;;;0.90;;
46781;SDS011;32541;46.298;11.506;2024-01-16T13:32:05;1.90;;;0.97;;
46781;SDS011;32541;46.298;11.506;2024-01-16T13:34:31;8.80;;;1.37;;
46781;SDS011;32541;46.298;11.506;2024-01-16T13:36:57;4.87;;;1.33;;
46781;SDS011;32541;46.298;11.506;2024-01-16T13:39:26;4.40;;;1.33;;
46781;SDS011;32541;46.298;11.506;2024-01-16T13:41:51;4.60;;;1.33;;
46781;SDS011;32541;46.298;11.506;2024-01-16T13:44:17;6.73;;;1.50;;
46781;SDS011;32541;46.298;11.506;2024-01-16T13:46:43;4.50;;;1.83;;
46781;SDS011;32541;46.298;11.506;2024-01-16T13:49:09;3.13;;;1.57;;
46781;SDS011;32541;46.298;11.506;2024-01-16T13:51:34;4.67;;;1.90;;
46781;SDS011;32541;46.298;11.506;2024-01-16T13:54:00;6.23;;;2.10;;
46781;SDS011;32541;46.298;11.506;2024-01-16T13:56:25;5.83;;;1.77;;
46781;SDS011;32541;46.298;11.506;2024-01-16T13:58:51;5.07;;;1.90;;
46781;SDS011;32541;46.298;11.506;2024-01-16T14:01:16;4.37;;;1.50;;
46781;SDS011;32541;46.298;11.506;2024-01-16T14:03:43;3.80;;;1.70;;
46781;SDS011;32541;46.298;11.506;2024-01-16T14:06:11;4.70;;;1.63;;
46781;SDS011;32541;46.298;11.506;2024-01-16T14:08:38;4.40;;;1.60;;
46781;SDS011;32541;46.298;11.506;2024-01-16T14:11:03;5.40;;;1.55;;
46781;SDS011;32541;46.298;11.506;2024-01-16T14:13:29;3.55;;;1.42;;
46781;SDS011;32541;46.298;11.506;2024-01-16T14:15:54;2.88;;;1.17;;
46781;SDS011;32541;46.298;11.506;2024-01-16T14:18:20;3.78;;;1.33;;
46781;SDS011;32541;46.298;11.506;2024-01-16T14:20:45;3.22;;;1.40;;
46781;SDS011;32541;46.298;11.506;2024-01-16T14:23:10;2.08;;;1.50;;
46781;SDS011;32541;46.298;11.506;2024-01-16T14:25:38;2.92;;;1.27;;
46781;SDS011;32541;46.298;11.506;2024-01-16T14:28:04;7.03;;;2.97;;
46781;SDS011;32541;46.298;11.506;2024-01-16T14:30:30;12.77;;;4.75;;
46781;SDS011;32541;46.298;11.506;2024-01-16T14:32:56;9.35;;;4.47;;
46781;SDS011;32541;46.298;11.506;2024-01-16T14:35:22;11.25;;;5.20;;
46781;SDS011;32541;46.298;11.506;2024-01-16T14:37:49;9.90;;;4.65;;
46781;SDS011;32541;46.298;11.506;2024-01-16T14:40:15;7.75;;;3.10;;